sensor_id;sensor_type;location;lat;lon;timestamp;temperature;humidity
20125;DHT22;10223;50.862;4.360;2023-07-08T00:00:43;23.60;99.90
20125;DHT22;10223;50.862;4.360;2023-07-08T00:03:11;23.80;99.90
20125;DHT22;10223;50.862;4.360;2023-07-08T00:05:37;23.80;99.90
20125;DHT22;10223;50.862;4.360;2023-07-08T00:08:04;23.80;99.90
20125;DHT22;10223;50.862;4.360;2023-07-08T00:10:31;23.80;99.90
20125;DHT22;10223;50.862;4.360;2023-07-08T00:12:58;24.00;99.90
20125;DHT22;10223;50.862;4.360;2023-07-08T00:15:27;24.00;99.90
20125;DHT22;10223;50.862;4.360;2023-07-08T00:17:56;23.90;99.90
20125;DHT22;10223;50.862;4.360;2023-07-08T00:20:28;23.80;99.90
20125;DHT22;10223;50.862;4.360;2023-07-08T00:22:57;23.70;99.90
20125;DHT22;10223;50.862;4.360;2023-07-08T00:25:26;23.60;99.90
20125;DHT22;10223;50.862;4.360;2023-07-08T00:27:53;23.60;99.90
20125;DHT22;10223;50.862;4.360;2023-07-08T00:30:22;23.70;99.90
20125;DHT22;10223;50.862;4.360;2023-07-08T00:32:49;23.70;99.90
20125;DHT22;10223;50.862;4.360;2023-07-08T00:35:21;23.70;99.90
20125;DHT22;10223;50.862;4.360;2023-07-08T00:37:50;23.70;99.90
20125;DHT22;10223;50.862;4.360;2023-07-08T00:40:20;23.70;99.90
20125;DHT22;10223;50.862;4.360;2023-07-08T00:42:47;23.80;99.90
20125;DHT22;10223;50.862;4.360;2023-07-08T00:45:30;23.80;99.90
20125;DHT22;10223;50.862;4.360;2023-07-08T00:48:05;23.80;99.90
20125;DHT22;10223;50.862;4.360;2023-07-08T00:50:33;23.60;99.90
20125;DHT22;10223;50.862;4.360;2023-07-08T00:53:35;23.50;99.90
20125;DHT22;10223;50.862;4.360;2023-07-08T00:56:06;23.30;99.90
20125;DHT22;10223;50.862;4.360;2023-07-08T00:58:40;23.20;99.90
20125;DHT22;10223;50.862;4.360;2023-07-08T01:01:09;23.10;99.90
20125;DHT22;10223;50.862;4.360;2023-07-08T01:03:40;23.20;99.90
20125;DHT22;10223;50.862;4.360;2023-07-08T01:06:10;23.20;99.90
20125;DHT22;10223;50.862;4.360;2023-07-08T01:08:38;23.20;99.90
20125;DHT22;10223;50.862;4.360;2023-07-08T01:11:05;23.20;99.90
20125;DHT22;10223;50.862;4.360;2023-07-08T01:13:35;23.20;99.90
20125;DHT22;10223;50.862;4.360;2023-07-08T01:16:04;23.10;99.90
20125;DHT22;10223;50.862;4.360;2023-07-08T01:18:32;23.10;99.90
20125;DHT22;10223;50.862;4.360;2023-07-08T01:21:04;23.10;99.90
20125;DHT22;10223;50.862;4.360;2023-07-08T01:23:34;23.10;99.90
20125;DHT22;10223;50.862;4.360;2023-07-08T01:26:02;23.00;99.90
20125;DHT22;10223;50.862;4.360;2023-07-08T01:28:30;22.90;99.90
20125;DHT22;10223;50.862;4.360;2023-07-08T01:30:57;22.60;99.90
20125;DHT22;10223;50.862;4.360;2023-07-08T01:33:24;22.50;99.90
20125;DHT22;10223;50.862;4.360;2023-07-08T01:35:52;22.50;99.90
20125;DHT22;10223;50.862;4.360;2023-07-08T01:38:23;22.50;99.90
20125;DHT22;10223;50.862;4.360;2023-07-08T01:40:53;22.60;99.90
20125;DHT22;10223;50.862;4.360;2023-07-08T01:43:21;22.60;99.90
20125;DHT22;10223;50.862;4.360;2023-07-08T01:45:49;22.60;99.90
20125;DHT22;10223;50.862;4.360;2023-07-08T01:48:22;22.60;99.90
20125;DHT22;10223;50.862;4.360;2023-07-08T01:51:00;22.60;99.90
20125;DHT22;10223;50.862;4.360;2023-07-08T01:53:31;22.70;99.90
20125;DHT22;10223;50.862;4.360;2023-07-08T01:56:00;22.50;99.90
20125;DHT22;10223;50.862;4.360;2023-07-08T01:58:27;22.40;99.90
20125;DHT22;10223;50.862;4.360;2023-07-08T02:00:54;22.40;99.90
20125;DHT22;10223;50.862;4.360;2023-07-08T02:03:21;22.40;99.90
20125;DHT22;10223;50.862;4.360;2023-07-08T02:05:48;22.50;99.90
20125;DHT22;10223;50.862;4.360;2023-07-08T02:08:15;22.50;99.90
20125;DHT22;10223;50.862;4.360;2023-07-08T02:10:43;22.60;99.90
20125;DHT22;10223;50.862;4.360;2023-07-08T02:13:12;22.60;99.90
20125;DHT22;10223;50.862;4.360;2023-07-08T02:15:39;22.50;99.90
20125;DHT22;10223;50.862;4.360;2023-07-08T02:18:05;22.60;99.90
20125;DHT22;10223;50.862;4.360;2023-07-08T02:20:32;22.70;99.90
20125;DHT22;10223;50.862;4.360;2023-07-08T02:22:59;22.60;99.90
20125;DHT22;10223;50.862;4.360;2023-07-08T02:25:26;22.70;99.90
20125;DHT22;10223;50.862;4.360;2023-07-08T02:27:54;22.60;99.90
20125;DHT22;10223;50.862;4.360;2023-07-08T02:30:24;22.60;99.90
20125;DHT22;10223;50.862;4.360;2023-07-08T02:32:51;22.50;99.90
20125;DHT22;10223;50.862;4.360;2023-07-08T02:35:22;22.40;99.90
20125;DHT22;10223;50.862;4.360;2023-07-08T02:37:49;22.50;99.90
20125;DHT22;10223;50.862;4.360;2023-07-08T02:40:16;22.60;99.90
20125;DHT22;10223;50.862;4.360;2023-07-08T02:42:43;22.60;99.90
20125;DHT22;10223;50.862;4.360;2023-07-08T02:45:11;22.60;99.90
20125;DHT22;10223;50.862;4.360;2023-07-08T02:47:40;22.50;99.90
20125;DHT22;10223;50.862;4.360;2023-07-08T02:50:08;22.40;99.90
20125;DHT22;10223;50.862;4.360;2023-07-08T02:52:35;22.50;99.90
20125;DHT22;10223;50.862;4.360;2023-07-08T02:55:02;22.60;99.90
20125;DHT22;10223;50.862;4.360;2023-07-08T02:57:29;22.50;99.90
20125;DHT22;10223;50.862;4.360;2023-07-08T02:59:56;22.60;99.90
20125;DHT22;10223;50.862;4.360;2023-07-08T03:02:23;22.50;99.90
20125;DHT22;10223;50.862;4.360;2023-07-08T03:04:51;22.40;99.90
20125;DHT22;10223;50.862;4.360;2023-07-08T03:07:20;22.40;99.90
20125;DHT22;10223;50.862;4.360;2023-07-08T03:09:46;22.20;99.90
20125;DHT22;10223;50.862;4.360;2023-07-08T03:12:13;21.80;99.90
20125;DHT22;10223;50.862;4.360;2023-07-08T03:14:40;21.80;99.90
20125;DHT22;10223;50.862;4.360;2023-07-08T03:17:07;22.00;99.90
20125;DHT22;10223;50.862;4.360;2023-07-08T03:19:34;22.20;99.90
20125;DHT22;10223;50.862;4.360;2023-07-08T03:22:03;22.10;99.90
20125;DHT22;10223;50.862;4.360;2023-07-08T03:24:31;22.10;99.90
20125;DHT22;10223;50.862;4.360;2023-07-08T03:26:58;22.30;99.90
20125;DHT22;10223;50.862;4.360;2023-07-08T03:29:30;22.30;99.90
20125;DHT22;10223;50.862;4.360;2023-07-08T03:31:57;22.30;99.90
20125;DHT22;10223;50.862;4.360;2023-07-08T03:34:24;22.40;99.90
20125;DHT22;10223;50.862;4.360;2023-07-08T03:36:51;22.30;99.90
20125;DHT22;10223;50.862;4.360;2023-07-08T03:39:23;22.20;99.90
20125;DHT22;10223;50.862;4.360;2023-07-08T03:41:53;22.20;99.90
20125;DHT22;10223;50.862;4.360;2023-07-08T03:44:23;22.10;99.90
20125;DHT22;10223;50.862;4.360;2023-07-08T03:46:50;22.00;99.90
20125;DHT22;10223;50.862;4.360;2023-07-08T03:49:18;22.10;99.90
20125;DHT22;10223;50.862;4.360;2023-07-08T03:51:48;22.00;99.90
20125;DHT22;10223;50.862;4.360;2023-07-08T03:54:16;21.90;99.90
20125;DHT22;10223;50.862;4.360;2023-07-08T03:56:45;21.90;99.90
20125;DHT22;10223;50.862;4.360;2023-07-08T03:59:12;21.80;99.90
20125;DHT22;10223;50.862;4.360;2023-07-08T04:01:39;21.90;99.90
20125;DHT22;10223;50.862;4.360;2023-07-08T04:04:09;22.00;99.90
20125;DHT22;10223;50.862;4.360;2023-07-08T04:06:37;22.10;99.90
20125;DHT22;10223;50.862;4.360;2023-07-08T04:09:04;22.20;99.90
20125;DHT22;10223;50.862;4.360;2023-07-08T04:11:32;22.30;99.90
20125;DHT22;10223;50.862;4.360;2023-07-08T04:14:00;22.30;99.90
20125;DHT22;10223;50.862;4.360;2023-07-08T04:16:44;22.20;99.90
20125;DHT22;10223;50.862;4.360;2023-07-08T04:19:12;22.30;99.90
20125;DHT22;10223;50.862;4.360;2023-07-08T04:21:40;22.30;99.90
20125;DHT22;10223;50.862;4.360;2023-07-08T04:24:09;22.10;99.90
20125;DHT22;10223;50.862;4.360;2023-07-08T04:26:36;22.10;99.90
20125;DHT22;10223;50.862;4.360;2023-07-08T04:29:08;22.00;99.90
20125;DHT22;10223;50.862;4.360;2023-07-08T04:31:36;21.90;99.90
20125;DHT22;10223;50.862;4.360;2023-07-08T04:34:03;21.90;99.90
20125;DHT22;10223;50.862;4.360;2023-07-08T04:36:31;21.90;99.90
20125;DHT22;10223;50.862;4.360;2023-07-08T04:38:59;21.90;99.90
20125;DHT22;10223;50.862;4.360;2023-07-08T04:41:36;21.80;99.90
20125;DHT22;10223;50.862;4.360;2023-07-08T04:44:19;21.90;99.90
20125;DHT22;10223;50.862;4.360;2023-07-08T04:46:49;21.70;99.90
20125;DHT22;10223;50.862;4.360;2023-07-08T04:49:17;21.80;99.90
20125;DHT22;10223;50.862;4.360;2023-07-08T04:51:44;22.00;99.90
20125;DHT22;10223;50.862;4.360;2023-07-08T04:54:11;21.80;99.90
20125;DHT22;10223;50.862;4.360;2023-07-08T04:56:40;21.80;99.90
20125;DHT22;10223;50.862;4.360;2023-07-08T04:59:08;21.70;99.90
20125;DHT22;10223;50.862;4.360;2023-07-08T05:01:37;21.60;99.90
20125;DHT22;10223;50.862;4.360;2023-07-08T05:04:04;21.70;99.90
20125;DHT22;10223;50.862;4.360;2023-07-08T05:06:32;21.70;99.90
20125;DHT22;10223;50.862;4.360;2023-07-08T05:08:59;21.70;99.90
20125;DHT22;10223;50.862;4.360;2023-07-08T05:11:27;21.80;99.90
20125;DHT22;10223;50.862;4.360;2023-07-08T05:13:58;21.90;99.90
20125;DHT22;10223;50.862;4.360;2023-07-08T05:16:25;21.90;99.90
20125;DHT22;10223;50.862;4.360;2023-07-08T05:18:53;22.00;99.90
20125;DHT22;10223;50.862;4.360;2023-07-08T05:21:21;22.20;99.90
20125;DHT22;10223;50.862;4.360;2023-07-08T05:23:48;22.40;99.90
20125;DHT22;10223;50.862;4.360;2023-07-08T05:26:16;22.50;99.90
20125;DHT22;10223;50.862;4.360;2023-07-08T05:28:43;22.50;99.90
20125;DHT22;10223;50.862;4.360;2023-07-08T05:31:10;22.40;99.90
20125;DHT22;10223;50.862;4.360;2023-07-08T05:33:37;22.40;99.90
20125;DHT22;10223;50.862;4.360;2023-07-08T05:36:05;22.40;99.90
20125;DHT22;10223;50.862;4.360;2023-07-08T05:38:32;22.10;99.90
20125;DHT22;10223;50.862;4.360;2023-07-08T05:40:59;22.00;99.90
20125;DHT22;10223;50.862;4.360;2023-07-08T05:43:26;22.10;99.90
20125;DHT22;10223;50.862;4.360;2023-07-08T05:45:57;22.30;99.90
20125;DHT22;10223;50.862;4.360;2023-07-08T05:48:24;22.40;99.90
20125;DHT22;10223;50.862;4.360;2023-07-08T05:51:06;22.40;99.90
20125;DHT22;10223;50.862;4.360;2023-07-08T05:53:33;22.50;99.90
20125;DHT22;10223;50.862;4.360;2023-07-08T05:56:01;22.50;99.90
20125;DHT22;10223;50.862;4.360;2023-07-08T05:58:28;22.60;99.90
20125;DHT22;10223;50.862;4.360;2023-07-08T06:00:56;22.70;99.90
20125;DHT22;10223;50.862;4.360;2023-07-08T06:03:23;22.90;99.90
20125;DHT22;10223;50.862;4.360;2023-07-08T06:05:50;23.10;99.90
20125;DHT22;10223;50.862;4.360;2023-07-08T06:08:18;23.20;99.90
20125;DHT22;10223;50.862;4.360;2023-07-08T06:10:45;23.40;99.90
20125;DHT22;10223;50.862;4.360;2023-07-08T06:13:12;23.50;99.90
20125;DHT22;10223;50.862;4.360;2023-07-08T06:15:39;23.70;99.90
20125;DHT22;10223;50.862;4.360;2023-07-08T06:18:07;23.80;99.90
20125;DHT22;10223;50.862;4.360;2023-07-08T06:20:34;23.80;99.90
20125;DHT22;10223;50.862;4.360;2023-07-08T06:23:01;23.60;99.90
20125;DHT22;10223;50.862;4.360;2023-07-08T06:25:30;23.50;99.90
20125;DHT22;10223;50.862;4.360;2023-07-08T06:27:56;23.70;99.90
20125;DHT22;10223;50.862;4.360;2023-07-08T06:30:26;23.60;99.90
20125;DHT22;10223;50.862;4.360;2023-07-08T06:32:55;23.70;99.90
20125;DHT22;10223;50.862;4.360;2023-07-08T06:35:22;23.70;99.90
20125;DHT22;10223;50.862;4.360;2023-07-08T06:37:48;23.70;99.90
20125;DHT22;10223;50.862;4.360;2023-07-08T06:40:15;23.70;99.90
20125;DHT22;10223;50.862;4.360;2023-07-08T06:42:46;23.60;99.90
20125;DHT22;10223;50.862;4.360;2023-07-08T06:45:13;23.70;99.90
20125;DHT22;10223;50.862;4.360;2023-07-08T06:47:43;23.70;99.90
20125;DHT22;10223;50.862;4.360;2023-07-08T06:50:10;23.90;99.90
20125;DHT22;10223;50.862;4.360;2023-07-08T06:52:37;24.00;99.90
20125;DHT22;10223;50.862;4.360;2023-07-08T06:55:06;24.10;99.90
20125;DHT22;10223;50.862;4.360;2023-07-08T06:57:33;24.60;99.90
20125;DHT22;10223;50.862;4.360;2023-07-08T07:00:02;24.90;99.90
20125;DHT22;10223;50.862;4.360;2023-07-08T07:02:30;25.20;99.90
20125;DHT22;10223;50.862;4.360;2023-07-08T07:04:57;25.20;99.90
20125;DHT22;10223;50.862;4.360;2023-07-08T07:07:24;25.10;99.90
20125;DHT22;10223;50.862;4.360;2023-07-08T07:09:51;25.10;99.90
20125;DHT22;10223;50.862;4.360;2023-07-08T07:12:18;25.30;99.90
20125;DHT22;10223;50.862;4.360;2023-07-08T07:14:46;25.80;99.90
20125;DHT22;10223;50.862;4.360;2023-07-08T07:17:16;25.90;99.90
20125;DHT22;10223;50.862;4.360;2023-07-08T07:19:43;25.90;99.90
20125;DHT22;10223;50.862;4.360;2023-07-08T07:22:10;26.10;99.90
20125;DHT22;10223;50.862;4.360;2023-07-08T07:24:49;26.30;99.90
20125;DHT22;10223;50.862;4.360;2023-07-08T07:27:16;26.60;99.90
20125;DHT22;10223;50.862;4.360;2023-07-08T07:29:44;26.80;99.90
20125;DHT22;10223;50.862;4.360;2023-07-08T07:32:12;27.00;99.90
20125;DHT22;10223;50.862;4.360;2023-07-08T07:34:41;27.30;99.90
20125;DHT22;10223;50.862;4.360;2023-07-08T07:37:11;28.30;99.90
20125;DHT22;10223;50.862;4.360;2023-07-08T07:39:38;29.30;99.90
20125;DHT22;10223;50.862;4.360;2023-07-08T07:42:06;30.00;99.90
20125;DHT22;10223;50.862;4.360;2023-07-08T07:44:33;30.20;99.90
20125;DHT22;10223;50.862;4.360;2023-07-08T07:47:00;30.70;99.90
20125;DHT22;10223;50.862;4.360;2023-07-08T07:49:26;31.60;99.90
20125;DHT22;10223;50.862;4.360;2023-07-08T07:51:55;32.00;99.00
20125;DHT22;10223;50.862;4.360;2023-07-08T07:54:22;32.40;98.10
20125;DHT22;10223;50.862;4.360;2023-07-08T07:56:49;32.20;98.60
20125;DHT22;10223;50.862;4.360;2023-07-08T07:59:16;32.30;98.30
20125;DHT22;10223;50.862;4.360;2023-07-08T08:01:43;31.60;98.70
20125;DHT22;10223;50.862;4.360;2023-07-08T08:04:10;31.90;98.10
20125;DHT22;10223;50.862;4.360;2023-07-08T08:06:38;31.60;97.50
20125;DHT22;10223;50.862;4.360;2023-07-08T08:09:07;31.10;96.90
20125;DHT22;10223;50.862;4.360;2023-07-08T08:11:34;30.60;97.60
20125;DHT22;10223;50.862;4.360;2023-07-08T08:14:01;29.60;97.70
20125;DHT22;10223;50.862;4.360;2023-07-08T08:16:29;29.10;96.90
20125;DHT22;10223;50.862;4.360;2023-07-08T08:18:56;29.60;97.10
20125;DHT22;10223;50.862;4.360;2023-07-08T08:21:23;29.90;97.70
20125;DHT22;10223;50.862;4.360;2023-07-08T08:23:50;30.00;97.40
20125;DHT22;10223;50.862;4.360;2023-07-08T08:26:18;30.10;97.80
20125;DHT22;10223;50.862;4.360;2023-07-08T08:28:45;30.50;97.40
20125;DHT22;10223;50.862;4.360;2023-07-08T08:31:12;30.50;97.30
20125;DHT22;10223;50.862;4.360;2023-07-08T08:33:39;30.50;97.50
20125;DHT22;10223;50.862;4.360;2023-07-08T08:36:07;31.20;97.00
20125;DHT22;10223;50.862;4.360;2023-07-08T08:38:34;31.00;96.80
20125;DHT22;10223;50.862;4.360;2023-07-08T08:41:04;30.70;97.20
20125;DHT22;10223;50.862;4.360;2023-07-08T08:43:38;31.30;96.80
20125;DHT22;10223;50.862;4.360;2023-07-08T08:46:10;31.60;95.60
20125;DHT22;10223;50.862;4.360;2023-07-08T08:48:53;31.90;94.80
20125;DHT22;10223;50.862;4.360;2023-07-08T08:51:23;32.40;93.60
20125;DHT22;10223;50.862;4.360;2023-07-08T08:53:53;32.90;92.90
20125;DHT22;10223;50.862;4.360;2023-07-08T08:56:25;32.70;92.10
20125;DHT22;10223;50.862;4.360;2023-07-08T08:59:00;33.70;91.40
20125;DHT22;10223;50.862;4.360;2023-07-08T09:01:29;34.70;90.30
20125;DHT22;10223;50.862;4.360;2023-07-08T09:03:59;34.90;88.40
20125;DHT22;10223;50.862;4.360;2023-07-08T09:06:28;34.10;88.20
20125;DHT22;10223;50.862;4.360;2023-07-08T09:09:00;33.90;88.80
20125;DHT22;10223;50.862;4.360;2023-07-08T09:11:39;34.90;86.90
20125;DHT22;10223;50.862;4.360;2023-07-08T09:14:15;35.00;85.30
20125;DHT22;10223;50.862;4.360;2023-07-08T09:17:11;35.80;83.90
20125;DHT22;10223;50.862;4.360;2023-07-08T09:19:54;36.40;81.10
20125;DHT22;10223;50.862;4.360;2023-07-08T09:22:30;36.40;79.70
20125;DHT22;10223;50.862;4.360;2023-07-08T09:25:03;35.80;79.20
20125;DHT22;10223;50.862;4.360;2023-07-08T09:27:30;35.50;81.10
20125;DHT22;10223;50.862;4.360;2023-07-08T09:30:04;35.20;81.00
20125;DHT22;10223;50.862;4.360;2023-07-08T09:32:32;35.50;80.20
20125;DHT22;10223;50.862;4.360;2023-07-08T09:35:03;34.90;80.30
20125;DHT22;10223;50.862;4.360;2023-07-08T09:37:36;34.70;81.10
20125;DHT22;10223;50.862;4.360;2023-07-08T09:40:28;35.20;80.80
20125;DHT22;10223;50.862;4.360;2023-07-08T09:43:00;35.10;78.90
20125;DHT22;10223;50.862;4.360;2023-07-08T09:45:40;35.20;79.40
20125;DHT22;10223;50.862;4.360;2023-07-08T09:48:24;35.30;78.30
20125;DHT22;10223;50.862;4.360;2023-07-08T09:50:53;35.40;78.40
20125;DHT22;10223;50.862;4.360;2023-07-08T09:53:46;36.00;77.60
20125;DHT22;10223;50.862;4.360;2023-07-08T09:56:27;36.00;76.00
20125;DHT22;10223;50.862;4.360;2023-07-08T09:58:56;36.30;76.70
20125;DHT22;10223;50.862;4.360;2023-07-08T10:01:28;35.50;76.10
20125;DHT22;10223;50.862;4.360;2023-07-08T10:03:58;36.00;76.00
20125;DHT22;10223;50.862;4.360;2023-07-08T10:06:27;36.30;75.20
20125;DHT22;10223;50.862;4.360;2023-07-08T10:08:55;36.10;75.70
20125;DHT22;10223;50.862;4.360;2023-07-08T10:11:28;36.30;75.50
20125;DHT22;10223;50.862;4.360;2023-07-08T10:13:59;34.70;75.90
20125;DHT22;10223;50.862;4.360;2023-07-08T10:16:30;34.10;77.90
20125;DHT22;10223;50.862;4.360;2023-07-08T10:18:58;34.00;79.40
20125;DHT22;10223;50.862;4.360;2023-07-08T10:21:31;34.40;79.40
20125;DHT22;10223;50.862;4.360;2023-07-08T10:24:16;34.80;78.10
20125;DHT22;10223;50.862;4.360;2023-07-08T10:26:50;34.90;77.50
20125;DHT22;10223;50.862;4.360;2023-07-08T10:29:27;35.10;76.70
20125;DHT22;10223;50.862;4.360;2023-07-08T10:32:05;35.70;76.60
20125;DHT22;10223;50.862;4.360;2023-07-08T10:34:41;35.70;74.70
20125;DHT22;10223;50.862;4.360;2023-07-08T10:37:19;34.90;75.70
20125;DHT22;10223;50.862;4.360;2023-07-08T10:39:59;33.50;78.20
20125;DHT22;10223;50.862;4.360;2023-07-08T10:42:42;33.00;79.10
20125;DHT22;10223;50.862;4.360;2023-07-08T10:45:14;33.20;79.10
20125;DHT22;10223;50.862;4.360;2023-07-08T10:48:00;33.60;77.70
20125;DHT22;10223;50.862;4.360;2023-07-08T10:50:40;34.50;76.50
20125;DHT22;10223;50.862;4.360;2023-07-08T10:53:22;35.00;75.70
20125;DHT22;10223;50.862;4.360;2023-07-08T10:55:57;35.10;74.80
20125;DHT22;10223;50.862;4.360;2023-07-08T10:58:36;35.10;76.30
20125;DHT22;10223;50.862;4.360;2023-07-08T11:01:18;34.70;77.20
20125;DHT22;10223;50.862;4.360;2023-07-08T11:04:11;35.00;77.70
20125;DHT22;10223;50.862;4.360;2023-07-08T11:06:45;34.50;78.20
20125;DHT22;10223;50.862;4.360;2023-07-08T11:09:17;34.10;79.70
20125;DHT22;10223;50.862;4.360;2023-07-08T11:11:49;34.10;80.10
20125;DHT22;10223;50.862;4.360;2023-07-08T11:14:22;34.40;80.40
20125;DHT22;10223;50.862;4.360;2023-07-08T11:16:57;34.50;79.50
20125;DHT22;10223;50.862;4.360;2023-07-08T11:19:32;34.00;80.40
20125;DHT22;10223;50.862;4.360;2023-07-08T11:22:05;33.70;81.50
20125;DHT22;10223;50.862;4.360;2023-07-08T11:24:38;34.20;81.60
20125;DHT22;10223;50.862;4.360;2023-07-08T11:27:12;34.40;80.50
20125;DHT22;10223;50.862;4.360;2023-07-08T11:29:46;34.10;81.70
20125;DHT22;10223;50.862;4.360;2023-07-08T11:32:19;34.00;82.10
20125;DHT22;10223;50.862;4.360;2023-07-08T11:34:50;33.80;82.60
20125;DHT22;10223;50.862;4.360;2023-07-08T11:37:18;33.50;83.70
20125;DHT22;10223;50.862;4.360;2023-07-08T11:39:53;33.70;83.70
20125;DHT22;10223;50.862;4.360;2023-07-08T11:42:23;33.70;83.70
20125;DHT22;10223;50.862;4.360;2023-07-08T11:44:54;34.00;84.00
20125;DHT22;10223;50.862;4.360;2023-07-08T11:47:25;34.20;83.90
20125;DHT22;10223;50.862;4.360;2023-07-08T11:49:54;34.00;84.10
20125;DHT22;10223;50.862;4.360;2023-07-08T11:52:23;33.80;84.10
20125;DHT22;10223;50.862;4.360;2023-07-08T11:54:56;33.80;84.50
20125;DHT22;10223;50.862;4.360;2023-07-08T11:57:28;34.10;84.70
20125;DHT22;10223;50.862;4.360;2023-07-08T12:00:13;34.40;84.30
20125;DHT22;10223;50.862;4.360;2023-07-08T12:02:55;34.40;84.60
20125;DHT22;10223;50.862;4.360;2023-07-08T12:05:31;34.40;83.80
20125;DHT22;10223;50.862;4.360;2023-07-08T12:07:59;33.80;84.90
20125;DHT22;10223;50.862;4.360;2023-07-08T12:10:32;33.40;86.10
20125;DHT22;10223;50.862;4.360;2023-07-08T12:12:59;33.30;86.50
20125;DHT22;10223;50.862;4.360;2023-07-08T12:15:28;33.70;86.20
20125;DHT22;10223;50.862;4.360;2023-07-08T12:17:56;33.70;86.60
20125;DHT22;10223;50.862;4.360;2023-07-08T12:20:29;33.70;86.30
20125;DHT22;10223;50.862;4.360;2023-07-08T12:22:57;33.20;87.80
20125;DHT22;10223;50.862;4.360;2023-07-08T12:25:28;33.20;88.50
20125;DHT22;10223;50.862;4.360;2023-07-08T12:27:54;33.30;88.30
20125;DHT22;10223;50.862;4.360;2023-07-08T12:30:22;33.30;88.40
20125;DHT22;10223;50.862;4.360;2023-07-08T12:32:50;33.30;89.20
20125;DHT22;10223;50.862;4.360;2023-07-08T12:35:22;33.50;88.60
20125;DHT22;10223;50.862;4.360;2023-07-08T12:37:51;33.80;88.50
20125;DHT22;10223;50.862;4.360;2023-07-08T12:40:21;33.80;88.20
20125;DHT22;10223;50.862;4.360;2023-07-08T12:42:48;33.70;88.40
20125;DHT22;10223;50.862;4.360;2023-07-08T12:45:16;32.90;90.30
20125;DHT22;10223;50.862;4.360;2023-07-08T12:47:44;32.90;90.50
20125;DHT22;10223;50.862;4.360;2023-07-08T12:50:12;33.00;90.50
20125;DHT22;10223;50.862;4.360;2023-07-08T12:52:40;32.60;91.20
20125;DHT22;10223;50.862;4.360;2023-07-08T12:55:08;32.30;91.70
20125;DHT22;10223;50.862;4.360;2023-07-08T12:57:37;30.30;96.70
20125;DHT22;10223;50.862;4.360;2023-07-08T13:00:12;29.50;99.50
20125;DHT22;10223;50.862;4.360;2023-07-08T13:02:39;29.00;99.90
20125;DHT22;10223;50.862;4.360;2023-07-08T13:05:12;28.50;99.90
20125;DHT22;10223;50.862;4.360;2023-07-08T13:07:41;28.20;99.90
20125;DHT22;10223;50.862;4.360;2023-07-08T13:10:17;27.90;99.90
20125;DHT22;10223;50.862;4.360;2023-07-08T13:12:48;27.50;99.90
20125;DHT22;10223;50.862;4.360;2023-07-08T13:15:21;26.30;99.90
20125;DHT22;10223;50.862;4.360;2023-07-08T13:17:49;24.10;99.90
20125;DHT22;10223;50.862;4.360;2023-07-08T13:20:17;23.10;99.90
20125;DHT22;10223;50.862;4.360;2023-07-08T13:22:51;22.60;99.90
20125;DHT22;10223;50.862;4.360;2023-07-08T13:25:20;22.60;99.90
20125;DHT22;10223;50.862;4.360;2023-07-08T13:28:00;22.40;99.90
20125;DHT22;10223;50.862;4.360;2023-07-08T13:30:28;22.20;99.90
20125;DHT22;10223;50.862;4.360;2023-07-08T13:32:56;22.80;99.90
20125;DHT22;10223;50.862;4.360;2023-07-08T13:35:26;23.40;99.90
20125;DHT22;10223;50.862;4.360;2023-07-08T13:37:55;23.90;99.90
20125;DHT22;10223;50.862;4.360;2023-07-08T13:40:22;24.20;99.90
20125;DHT22;10223;50.862;4.360;2023-07-08T13:42:50;24.60;99.90
20125;DHT22;10223;50.862;4.360;2023-07-08T13:45:24;25.00;99.90
20125;DHT22;10223;50.862;4.360;2023-07-08T13:47:59;25.20;99.90
20125;DHT22;10223;50.862;4.360;2023-07-08T13:50:29;25.50;99.90
20125;DHT22;10223;50.862;4.360;2023-07-08T13:52:58;25.80;99.90
20125;DHT22;10223;50.862;4.360;2023-07-08T13:55:25;26.10;99.90
20125;DHT22;10223;50.862;4.360;2023-07-08T13:57:58;26.30;99.90
20125;DHT22;10223;50.862;4.360;2023-07-08T14:00:29;26.60;99.90
20125;DHT22;10223;50.862;4.360;2023-07-08T14:02:56;26.70;99.90
20125;DHT22;10223;50.862;4.360;2023-07-08T14:05:23;27.20;99.90
20125;DHT22;10223;50.862;4.360;2023-07-08T14:07:50;28.20;99.90
20125;DHT22;10223;50.862;4.360;2023-07-08T14:10:17;28.80;99.90
20125;DHT22;10223;50.862;4.360;2023-07-08T14:12:44;29.80;99.90
20125;DHT22;10223;50.862;4.360;2023-07-08T14:15:11;30.70;99.90
20125;DHT22;10223;50.862;4.360;2023-07-08T14:17:39;32.60;99.90
20125;DHT22;10223;50.862;4.360;2023-07-08T14:20:15;33.80;99.90
20125;DHT22;10223;50.862;4.360;2023-07-08T14:22:42;34.60;99.90
20125;DHT22;10223;50.862;4.360;2023-07-08T14:25:10;34.60;99.90
20125;DHT22;10223;50.862;4.360;2023-07-08T14:27:37;33.80;99.90
20125;DHT22;10223;50.862;4.360;2023-07-08T14:30:09;33.90;99.90
20125;DHT22;10223;50.862;4.360;2023-07-08T14:32:36;34.50;99.90
20125;DHT22;10223;50.862;4.360;2023-07-08T14:35:14;34.70;99.90
20125;DHT22;10223;50.862;4.360;2023-07-08T14:37:42;34.70;99.90
20125;DHT22;10223;50.862;4.360;2023-07-08T14:40:22;35.20;99.90
20125;DHT22;10223;50.862;4.360;2023-07-08T14:42:55;35.30;99.90
20125;DHT22;10223;50.862;4.360;2023-07-08T14:45:23;34.60;99.90
20125;DHT22;10223;50.862;4.360;2023-07-08T14:47:49;34.40;99.90
20125;DHT22;10223;50.862;4.360;2023-07-08T14:50:18;35.60;99.90
20125;DHT22;10223;50.862;4.360;2023-07-08T14:52:45;37.10;99.90
20125;DHT22;10223;50.862;4.360;2023-07-08T14:55:11;36.50;99.90
20125;DHT22;10223;50.862;4.360;2023-07-08T14:57:44;36.70;99.90
20125;DHT22;10223;50.862;4.360;2023-07-08T15:00:13;37.30;99.90
20125;DHT22;10223;50.862;4.360;2023-07-08T15:02:41;38.30;99.60
20125;DHT22;10223;50.862;4.360;2023-07-08T15:05:14;40.10;97.60
20125;DHT22;10223;50.862;4.360;2023-07-08T15:07:43;41.00;94.00
20125;DHT22;10223;50.862;4.360;2023-07-08T15:10:10;39.80;92.40
20125;DHT22;10223;50.862;4.360;2023-07-08T15:12:37;40.30;92.40
20125;DHT22;10223;50.862;4.360;2023-07-08T15:15:08;40.30;91.10
20125;DHT22;10223;50.862;4.360;2023-07-08T15:17:39;40.00;90.30
20125;DHT22;10223;50.862;4.360;2023-07-08T15:20:10;40.30;90.30
20125;DHT22;10223;50.862;4.360;2023-07-08T15:22:42;40.90;86.40
20125;DHT22;10223;50.862;4.360;2023-07-08T15:25:11;39.20;86.50
20125;DHT22;10223;50.862;4.360;2023-07-08T15:27:38;38.70;88.50
20125;DHT22;10223;50.862;4.360;2023-07-08T15:30:15;39.30;89.10
20125;DHT22;10223;50.862;4.360;2023-07-08T15:32:43;39.20;87.40
20125;DHT22;10223;50.862;4.360;2023-07-08T15:35:13;39.40;87.30
20125;DHT22;10223;50.862;4.360;2023-07-08T15:37:41;39.70;85.40
20125;DHT22;10223;50.862;4.360;2023-07-08T15:40:16;38.40;90.60
20125;DHT22;10223;50.862;4.360;2023-07-08T15:42:46;38.50;90.10
20125;DHT22;10223;50.862;4.360;2023-07-08T15:45:18;38.00;88.70
20125;DHT22;10223;50.862;4.360;2023-07-08T15:47:46;37.90;90.10